Port Angeles, Washington
Current Conditions -  °F | °C
As of 3:53 PM on Thursday 18 Dec 2014 (Local Time) from KCLM Reporting Station
Scattered Clouds Scattered Clouds  
Wind Chill: 46°   Ceiling: Unl
Heat Index: 46°   Visibility: 10mi
Dew Point: 43°   Wind: 0mph
Humidity: 89%   Direction: NA
Pressure: 29.66"   Gusts: NA
Location:  48.12°N, 123.43°W
Report Text: KCLM 182353Z AUTO 00000KT 10SM FEW045 SCT065 08/06 A2966 RMK AO2 RAB06E32 SLP045 P0000 60000 T00780061 10089 20061 58031 TSNO
Loading
Personal Weather Stations






























Interactive Weather Map New forecast layout! Learn more

10-Day Weather Forecast

Advertisements
Track Severe Weather on mobile